Nissos Mykonos — SYJZ — position and weather

sailwx.info

Track history (hours):
 
Tides and Currents Weather Stations Pressure Air Temp Water Temp Dewpoint Dewpoint Depression Visibility Wind Speed Wind Dir Waves Ship Positions

Nissos Mykonos

Last reported at 2015-Jul-06 19:34 UTC. Time now 2015-Jul-06 20:04 UTC.
Position N 37°11' E 025°26'.

Length 141 m; draft 5.2 m.

Type: Passenger vessel. MMSI: 240389000.

Date/timePositionNaut miles runAvg speedWind from/ knotsBaromVisibWave heightAir tempDewpointWater temp
2015-Jul-06 19:34N 37°11' E 025°26'2625.7
2015-Jul-06 18:34N 37°28' E 025°50'2115.7
2015-Jul-06 17:15N 37°39' E 026°12'20 7.5
2015-Jul-06 14:33N 37°47' E 026°36'1210.1
2015-Jul-06 13:20N 37°42' E 026°21'1013.1
2015-Jul-06 12:32N 37°39' E 026°08'2223.0
2015-Jul-06 11:33N 37°27' E 025°45'2424.0
2015-Jul-06 10:34N 37°09' E 025°24'1211.7
2015-Jul-06 09:33N 37°08' E 025°09'6 5.6
2015-Jul-06 08:34N 37°09' E 025°03'7424.6
2015-Jul-06 05:34N 37°44' E 023°41'1312.8
2015-Jul-06 04:33N 37°57' E 023°38'0 0.0
2015-Jul-06 03:33N 37°57' E 023°38'0 0.0
2015-Jul-06 02:33N 37°57' E 023°38'0 0.0
2015-Jul-06 01:33N 37°57' E 023°38'0 0.0
2015-Jul-06 00:33N 37°57' E 023°38'0 0.0
2015-Jul-05 23:33N 37°57' E 023°38'0 0.0
2015-Jul-05 22:33N 37°57' E 023°38'0 0.0
2015-Jul-05 21:27N 37°57' E 023°38'9 9.6
2015-Jul-05 20:33N 37°48' E 023°41'6024.5
2015-Jul-05 18:07N 37°18' E 024°46'1425.3
2015-Jul-05 17:34N 37°10' E 025°01'1413.8
2015-Jul-05 16:34N 37°10' E 025°18'1716.8
2015-Jul-05 15:33N 37°17' E 025°37'12 3.0
2015-Jul-05 11:34N 37°27' E 025°46'2424.0
2015-Jul-05 10:34N 37°10' E 025°25'1211.8
2015-Jul-05 09:33N 37°09' E 025°10'7 7.1
2015-Jul-05 08:33N 37°09' E 025°01'7324.3
2015-Jul-05 05:34N 37°44' E 023°41'1312.9
2015-Jul-05 04:34N 37°57' E 023°38'0 0.0
2015-Jul-05 03:33N 37°57' E 023°38'0 0.0
2015-Jul-05 02:34N 37°57' E 023°38'0 0.0
2015-Jul-05 01:33N 37°57' E 023°38'0 0.0
2015-Jul-05 00:33N 37°57' E 023°38'0 0.0
2015-Jul-04 23:34N 37°57' E 023°38'0 0.0
2015-Jul-04 22:34N 37°57' E 023°38'0 0.0
2015-Jul-04 21:34N 37°57' E 023°38'4 3.6
2015-Jul-04 20:34N 37°53' E 023°38'7324.3
2015-Jul-04 17:34N 37°13' E 024°55'1312.3
2015-Jul-04 16:28N 37°05' E 025°09'1111.7
2015-Jul-04 15:34N 37°06' E 025°22'2121.1
2015-Jul-04 14:34N 37°23' E 025°39'7 2.4
2015-Jul-04 11:33N 37°28' E 025°45'2424.1
2015-Jul-04 10:33N 37°10' E 025°25'1212.3
2015-Jul-04 09:33N 37°08' E 025°10'8 8.0
2015-Jul-04 08:34N 37°11' E 024°60'7123.8
2015-Jul-04 05:34N 37°44' E 023°40'1312.8
2015-Jul-04 04:33N 37°57' E 023°38'0 0.0
2015-Jul-04 03:33N 37°57' E 023°38'0 0.0
2015-Jul-04 02:33N 37°57' E 023°38'0 0.0
2015-Jul-04 01:33N 37°57' E 023°38'0 0.0
2015-Jul-04 00:33N 37°57' E 023°38'0 0.0
2015-Jul-03 23:33N 37°57' E 023°38'0 0.0
2015-Jul-03 22:33N 37°57' E 023°38'1413.7
2015-Jul-03 21:34N 37°44' E 023°44'4924.0
2015-Jul-03 19:31N 37°32' E 024°44'2425.1
2015-Jul-03 18:33N 37°31' E 025°15'2222.3
2015-Jul-03 17:34N 37°37' E 025°41'4117.3
2015-Jul-03 15:11N 37°44' E 026°33'15 7.9
2015-Jul-03 13:20N 37°40' E 026°15'1012.0
2015-Jul-03 12:32N 37°39' E 026°03'2120.9
2015-Jul-03 11:33N 37°26' E 025°43'2222.5
2015-Jul-03 10:33N 37°09' E 025°24'1111.1
2015-Jul-03 09:33N 37°09' E 025°10'9 9.4
2015-Jul-03 08:33N 37°11' E 024°59'7123.6
2015-Jul-03 05:34N 37°45' E 023°40'1212.1
2015-Jul-03 04:33N 37°57' E 023°38'0 0.0
2015-Jul-03 03:33N 37°57' E 023°38'0 0.0
2015-Jul-03 02:33N 37°57' E 023°38'0 0.0
2015-Jul-03 01:33N 37°57' E 023°38'0 0.0
2015-Jul-03 00:33N 37°57' E 023°38'0 0.0
2015-Jul-02 23:33N 37°57' E 023°38'0 0.0
2015-Jul-02 22:33N 37°57' E 023°38'0 0.0
2015-Jul-02 21:33N 37°57' E 023°38'3 2.9
2015-Jul-02 20:33N 37°54' E 023°38'7324.2
2015-Jul-02 17:33N 37°14' E 024°54'1412.9
2015-Jul-02 16:27N 37°05' E 025°09'1112.0
2015-Jul-02 15:33N 37°06' E 025°22'1919.2
2015-Jul-02 14:33N 37°22' E 025°37'9 2.9
2015-Jul-02 11:32N 37°28' E 025°44'2424.6
2015-Jul-02 10:33N 37°10' E 025°25'1211.7
2015-Jul-02 09:33N 37°09' E 025°10'7 6.7
2015-Jul-02 08:34N 37°10' E 025°02'7324.3
2015-Jul-02 05:33N 37°44' E 023°41'1312.6
2015-Jul-02 04:32N 37°57' E 023°38'0 0.0
2015-Jul-02 03:28N 37°57' E 023°38'0 0.0
2015-Jul-02 02:33N 37°57' E 023°38'0 0.0
2015-Jul-02 01:33N 37°57' E 023°38'1616.0
2015-Jul-02 00:34N 37°42' E 023°46'5123.7
2015-Jul-01 22:25N 37°21' E 024°45'2225.2
2015-Jul-01 21:33N 37°07' E 025°06'1212.3
2015-Jul-01 20:33N 37°07' E 025°21'6 6.3
2015-Jul-01 19:33N 37°12' E 025°27'2525.4
2015-Jul-01 18:33N 37°28' E 025°50'4414.8
2015-Jul-01 15:33N 37°48' E 026°41'6 5.7
2015-Jul-01 14:28N 37°45' E 026°34'10 8.9
2015-Jul-01 13:22N 37°42' E 026°22'1113.1
2015-Jul-01 12:30N 37°39' E 026°08'2122.7
2015-Jul-01 11:33N 37°28' E 025°45'2424.6
2015-Jul-01 10:34N 37°10' E 025°25'1111.3
2015-Jul-01 09:33N 37°09' E 025°10'9 9.5
2015-Jul-01 08:34N 37°11' E 024°59'7223.9
2015-Jul-01 05:34N 37°45' E 023°40'1111.5
2015-Jul-01 04:33N 37°57' E 023°38'0 0.0
2015-Jul-01 03:33N 37°57' E 023°38'0 0.0
2015-Jul-01 02:33N 37°57' E 023°38'0 0.0
2015-Jul-01 01:31N 37°57' E 023°38'0 0.0
2015-Jul-01 00:32N 37°57' E 023°38'0 0.0
2015-Jun-30 23:32N 37°57' E 023°38'0 0.0
2015-Jun-30 22:33N 37°57' E 023°38'0 0.0
2015-Jun-30 21:34N 37°57' E 023°38'3 2.9
2015-Jun-30 20:33N 37°54' E 023°38'2423.0
2015-Jun-30 19:32N 37°37' E 023°59'5025.1
2015-Jun-30 17:34N 37°14' E 024°54'1512.3
2015-Jun-30 16:23N 37°05' E 025°09'1113.0
2015-Jun-30 15:33N 37°06' E 025°22'1716.8
2015-Jun-30 14:33N 37°18' E 025°37'2625.5
2015-Jun-30 13:33N 37°36' E 026°00'9 8.8
2015-Jun-30 12:33N 37°39' E 026°11'2423.9
2015-Jun-30 11:33N 37°26' E 025°46'2525.0
2015-Jun-30 10:33N 37°09' E 025°24'1010.3
2015-Jun-30 09:33N 37°09' E 025°10'7 6.6
2015-Jun-30 08:34N 37°09' E 025°02'7324.5
2015-Jun-30 05:34N 37°44' E 023°41'1313.0
2015-Jun-30 04:33N 37°57' E 023°38'0 0.0
2015-Jun-30 03:33N 37°57' E 023°38'0 0.0
2015-Jun-30 02:33N 37°57' E 023°38'0 0.0
2015-Jun-30 01:33N 37°57' E 023°38'1312.7
2015-Jun-30 00:33N 37°45' E 023°43'5524.7
2015-Jun-29 22:19N 37°19' E 024°45'1925.4
2015-Jun-29 21:34N 37°07' E 025°05'10 9.6
2015-Jun-29 20:33N 37°10' E 025°16'9 8.7
2015-Jun-29 19:34N 37°11' E 025°27'2525.3
2015-Jun-29 18:34N 37°28' E 025°50'2015.7
2015-Jun-29 17:16N 37°39' E 026°12'20 7.1
2015-Jun-29 14:31N 37°46' E 026°35'1511.1
2015-Jun-29 13:12N 37°42' E 026°18'7 9.2
2015-Jun-29 12:24N 37°39' E 026°09'2024.4
2015-Jun-29 11:34N 37°27' E 025°48'2525.1
2015-Jun-29 10:33N 37°10' E 025°25'1312.5
2015-Jun-29 09:33N 37°08' E 025°10'7 6.8
2015-Jun-29 08:34N 37°10' E 025°01'7324.2
2015-Jun-29 05:33N 37°44' E 023°40'1312.8
2015-Jun-29 04:33N 37°57' E 023°38'0 0.0
2015-Jun-29 03:31N 37°57' E 023°38'0 0.0
2015-Jun-29 02:32N 37°57' E 023°38'0 0.0
2015-Jun-29 01:22N 37°57' E 023°38'0 0.0
2015-Jun-29 00:33N 37°57' E 023°38'0 0.0
2015-Jun-28 23:31N 37°57' E 023°38'0 0.0
2015-Jun-28 22:23N 37°57' E 023°38'0 0.0
2015-Jun-28 21:29N 37°57' E 023°38'3 3.4
2015-Jun-28 20:33N 37°54' E 023°38'7324.2
2015-Jun-28 17:34N 37°13' E 024°54'1412.2
2015-Jun-28 16:24N 37°05' E 025°09'1112.8
2015-Jun-28 15:33N 37°06' E 025°22'1515.5
2015-Jun-28 14:33N 37°18' E 025°36'2725.3
2015-Jun-28 13:29N 37°37' E 025°60'15 7.5
2015-Jun-28 11:32N 37°27' E 025°47'2424.6
2015-Jun-28 10:33N 37°10' E 025°25'1211.6
2015-Jun-28 09:33N 37°09' E 025°10'7 6.7
2015-Jun-28 08:34N 37°09' E 025°02'7324.4
2015-Jun-28 05:34N 37°44' E 023°41'1313.0
2015-Jun-28 04:33N 37°57' E 023°38'0 0.0
2015-Jun-28 03:31N 37°57' E 023°38'0 0.0
2015-Jun-28 02:32N 37°57' E 023°38'0 0.0
2015-Jun-28 01:32N 37°57' E 023°38'0 0.0
2015-Jun-28 00:30N 37°57' E 023°38'0 0.0
2015-Jun-27 23:28N 37°57' E 023°38'0 0.0
2015-Jun-27 22:31N 37°57' E 023°38'0 0.0
2015-Jun-27 21:32N 37°57' E 023°38'4 4.0
2015-Jun-27 20:33N 37°53' E 023°39'7224.0
2015-Jun-27 17:33N 37°13' E 024°54'1312.8
2015-Jun-27 16:33N 37°05' E 025°07'1211.7
2015-Jun-27 15:34N 37°07' E 025°22'2524.5
2015-Jun-27 14:33N 37°25' E 025°42'5 1.6
2015-Jun-27 11:34N 37°30' E 025°43'2524.6
2015-Jun-27 10:34N 37°10' E 025°25'1211.5
2015-Jun-27 09:33N 37°09' E 025°10'8 7.8
2015-Jun-27 08:34N 37°10' E 025°01'7224.2
2015-Jun-27 05:34N 37°44' E 023°40'1212.3
2015-Jun-27 04:33N 37°57' E 023°38'0 0.0
2015-Jun-27 03:34N 37°57' E 023°38'0 0.0
2015-Jun-27 02:34N 37°57' E 023°38'0 0.0
2015-Jun-27 01:34N 37°57' E 023°38'0 0.0
2015-Jun-27 00:33N 37°57' E 023°38'0 0.0
2015-Jun-26 23:33N 37°57' E 023°38'0 0.0
2015-Jun-26 22:34N 37°57' E 023°38'9 9.1
2015-Jun-26 21:33N 37°48' E 023°41'  
Track history (hours):
 
Tides and Currents Weather Stations Pressure Air Temp Water Temp Dewpoint Dewpoint Depression Visibility Wind Speed Wind Dir Waves Ship Positions

Nissos Mykonos

Last reported at 2015-Jul-06 19:34 UTC. Time now 2015-Jul-06 20:04 UTC.
Position N 37°11' E 025°26'.

Length 141 m; draft 5.2 m.

Type: Passenger vessel. MMSI: 240389000.

Date/timePositionNaut miles runAvg speedWind from/ knotsBaromVisibWave heightAir tempDewpointWater temp
2015-Jul-06 19:34N 37°11' E 025°26'2625.7
2015-Jul-06 18:34N 37°28' E 025°50'2115.7
2015-Jul-06 17:15N 37°39' E 026°12'20 7.5
2015-Jul-06 14:33N 37°47' E 026°36'1210.1
2015-Jul-06 13:20N 37°42' E 026°21'1013.1
2015-Jul-06 12:32N 37°39' E 026°08'2223.0
2015-Jul-06 11:33N 37°27' E 025°45'2424.0
2015-Jul-06 10:34N 37°09' E 025°24'1211.7
2015-Jul-06 09:33N 37°08' E 025°09'6 5.6
2015-Jul-06 08:34N 37°09' E 025°03'7424.6
2015-Jul-06 05:34N 37°44' E 023°41'1312.8
2015-Jul-06 04:33N 37°57' E 023°38'0 0.0
2015-Jul-06 03:33N 37°57' E 023°38'0 0.0
2015-Jul-06 02:33N 37°57' E 023°38'0 0.0
2015-Jul-06 01:33N 37°57' E 023°38'0 0.0
2015-Jul-06 00:33N 37°57' E 023°38'0 0.0
2015-Jul-05 23:33N 37°57' E 023°38'0 0.0
2015-Jul-05 22:33N 37°57' E 023°38'0 0.0
2015-Jul-05 21:27N 37°57' E 023°38'9 9.6
2015-Jul-05 20:33N 37°48' E 023°41'6024.5
2015-Jul-05 18:07N 37°18' E 024°46'1425.3
2015-Jul-05 17:34N 37°10' E 025°01'1413.8
2015-Jul-05 16:34N 37°10' E 025°18'1716.8
2015-Jul-05 15:33N 37°17' E 025°37'12 3.0
2015-Jul-05 11:34N 37°27' E 025°46'2424.0
2015-Jul-05 10:34N 37°10' E 025°25'1211.8
2015-Jul-05 09:33N 37°09' E 025°10'7 7.1
2015-Jul-05 08:33N 37°09' E 025°01'7324.3
2015-Jul-05 05:34N 37°44' E 023°41'1312.9
2015-Jul-05 04:34N 37°57' E 023°38'0 0.0
2015-Jul-05 03:33N 37°57' E 023°38'0 0.0
2015-Jul-05 02:34N 37°57' E 023°38'0 0.0
2015-Jul-05 01:33N 37°57' E 023°38'0 0.0
2015-Jul-05 00:33N 37°57' E 023°38'0 0.0
2015-Jul-04 23:34N 37°57' E 023°38'0 0.0
2015-Jul-04 22:34N 37°57' E 023°38'0 0.0
2015-Jul-04 21:34N 37°57' E 023°38'4 3.6
2015-Jul-04 20:34N 37°53' E 023°38'7324.3
2015-Jul-04 17:34N 37°13' E 024°55'1312.3
2015-Jul-04 16:28N 37°05' E 025°09'1111.7
2015-Jul-04 15:34N 37°06' E 025°22'2121.1
2015-Jul-04 14:34N 37°23' E 025°39'7 2.4
2015-Jul-04 11:33N 37°28' E 025°45'2424.1
2015-Jul-04 10:33N 37°10' E 025°25'1212.3
2015-Jul-04 09:33N 37°08' E 025°10'8 8.0
2015-Jul-04 08:34N 37°11' E 024°60'7123.8
2015-Jul-04 05:34N 37°44' E 023°40'1312.8
2015-Jul-04 04:33N 37°57' E 023°38'0 0.0
2015-Jul-04 03:33N 37°57' E 023°38'0 0.0
2015-Jul-04 02:33N 37°57' E 023°38'0 0.0
2015-Jul-04 01:33N 37°57' E 023°38'0 0.0
2015-Jul-04 00:33N 37°57' E 023°38'0 0.0
2015-Jul-03 23:33N 37°57' E 023°38'0 0.0
2015-Jul-03 22:33N 37°57' E 023°38'1413.7
2015-Jul-03 21:34N 37°44' E 023°44'4924.0
2015-Jul-03 19:31N 37°32' E 024°44'2425.1
2015-Jul-03 18:33N 37°31' E 025°15'2222.3
2015-Jul-03 17:34N 37°37' E 025°41'4117.3
2015-Jul-03 15:11N 37°44' E 026°33'15 7.9
2015-Jul-03 13:20N 37°40' E 026°15'1012.0
2015-Jul-03 12:32N 37°39' E 026°03'2120.9
2015-Jul-03 11:33N 37°26' E 025°43'2222.5
2015-Jul-03 10:33N 37°09' E 025°24'1111.1
2015-Jul-03 09:33N 37°09' E 025°10'9 9.4
2015-Jul-03 08:33N 37°11' E 024°59'7123.6
2015-Jul-03 05:34N 37°45' E 023°40'1212.1
2015-Jul-03 04:33N 37°57' E 023°38'0 0.0
2015-Jul-03 03:33N 37°57' E 023°38'0 0.0
2015-Jul-03 02:33N 37°57' E 023°38'0 0.0
2015-Jul-03 01:33N 37°57' E 023°38'0 0.0
2015-Jul-03 00:33N 37°57' E 023°38'0 0.0
2015-Jul-02 23:33N 37°57' E 023°38'0 0.0
2015-Jul-02 22:33N 37°57' E 023°38'0 0.0
2015-Jul-02 21:33N 37°57' E 023°38'3 2.9
2015-Jul-02 20:33N 37°54' E 023°38'7324.2
2015-Jul-02 17:33N 37°14' E 024°54'1412.9
2015-Jul-02 16:27N 37°05' E 025°09'1112.0
2015-Jul-02 15:33N 37°06' E 025°22'1919.2
2015-Jul-02 14:33N 37°22' E 025°37'9 2.9
2015-Jul-02 11:32N 37°28' E 025°44'2424.6
2015-Jul-02 10:33N 37°10' E 025°25'1211.7
2015-Jul-02 09:33N 37°09' E 025°10'7 6.7
2015-Jul-02 08:34N 37°10' E 025°02'7324.3
2015-Jul-02 05:33N 37°44' E 023°41'1312.6
2015-Jul-02 04:32N 37°57' E 023°38'0 0.0
2015-Jul-02 03:28N 37°57' E 023°38'0 0.0
2015-Jul-02 02:33N 37°57' E 023°38'0 0.0
2015-Jul-02 01:33N 37°57' E 023°38'1616.0
2015-Jul-02 00:34N 37°42' E 023°46'5123.7
2015-Jul-01 22:25N 37°21' E 024°45'2225.2
2015-Jul-01 21:33N 37°07' E 025°06'1212.3
2015-Jul-01 20:33N 37°07' E 025°21'6 6.3
2015-Jul-01 19:33N 37°12' E 025°27'2525.4
2015-Jul-01 18:33N 37°28' E 025°50'4414.8
2015-Jul-01 15:33N 37°48' E 026°41'6 5.7
2015-Jul-01 14:28N 37°45' E 026°34'10 8.9
2015-Jul-01 13:22N 37°42' E 026°22'1113.1
2015-Jul-01 12:30N 37°39' E 026°08'2122.7
2015-Jul-01 11:33N 37°28' E 025°45'2424.6
2015-Jul-01 10:34N 37°10' E 025°25'1111.3
2015-Jul-01 09:33N 37°09' E 025°10'9 9.5
2015-Jul-01 08:34N 37°11' E 024°59'7223.9
2015-Jul-01 05:34N 37°45' E 023°40'1111.5
2015-Jul-01 04:33N 37°57' E 023°38'0 0.0
2015-Jul-01 03:33N 37°57' E 023°38'0 0.0
2015-Jul-01 02:33N 37°57' E 023°38'0 0.0
2015-Jul-01 01:31N 37°57' E 023°38'0 0.0
2015-Jul-01 00:32N 37°57' E 023°38'0 0.0
2015-Jun-30 23:32N 37°57' E 023°38'0 0.0
2015-Jun-30 22:33N 37°57' E 023°38'0 0.0
2015-Jun-30 21:34N 37°57' E 023°38'3 2.9
2015-Jun-30 20:33N 37°54' E 023°38'2423.0
2015-Jun-30 19:32N 37°37' E 023°59'5025.1
2015-Jun-30 17:34N 37°14' E 024°54'1512.3
2015-Jun-30 16:23N 37°05' E 025°09'1113.0
2015-Jun-30 15:33N 37°06' E 025°22'1716.8
2015-Jun-30 14:33N 37°18' E 025°37'2625.5
2015-Jun-30 13:33N 37°36' E 026°00'9 8.8
2015-Jun-30 12:33N 37°39' E 026°11'2423.9
2015-Jun-30 11:33N 37°26' E 025°46'2525.0
2015-Jun-30 10:33N 37°09' E 025°24'1010.3
2015-Jun-30 09:33N 37°09' E 025°10'7 6.6
2015-Jun-30 08:34N 37°09' E 025°02'7324.5
2015-Jun-30 05:34N 37°44' E 023°41'1313.0
2015-Jun-30 04:33N 37°57' E 023°38'0 0.0
2015-Jun-30 03:33N 37°57' E 023°38'0 0.0
2015-Jun-30 02:33N 37°57' E 023°38'0 0.0
2015-Jun-30 01:33N 37°57' E 023°38'1312.7
2015-Jun-30 00:33N 37°45' E 023°43'5524.7
2015-Jun-29 22:19N 37°19' E 024°45'1925.4
2015-Jun-29 21:34N 37°07' E 025°05'10 9.6
2015-Jun-29 20:33N 37°10' E 025°16'9 8.7
2015-Jun-29 19:34N 37°11' E 025°27'2525.3
2015-Jun-29 18:34N 37°28' E 025°50'2015.7
2015-Jun-29 17:16N 37°39' E 026°12'20 7.1
2015-Jun-29 14:31N 37°46' E 026°35'1511.1
2015-Jun-29 13:12N 37°42' E 026°18'7 9.2
2015-Jun-29 12:24N 37°39' E 026°09'2024.4
2015-Jun-29 11:34N 37°27' E 025°48'2525.1
2015-Jun-29 10:33N 37°10' E 025°25'1312.5
2015-Jun-29 09:33N 37°08' E 025°10'7 6.8
2015-Jun-29 08:34N 37°10' E 025°01'7324.2
2015-Jun-29 05:33N 37°44' E 023°40'1312.8
2015-Jun-29 04:33N 37°57' E 023°38'0 0.0
2015-Jun-29 03:31N 37°57' E 023°38'0 0.0
2015-Jun-29 02:32N 37°57' E 023°38'0 0.0
2015-Jun-29 01:22N 37°57' E 023°38'0 0.0
2015-Jun-29 00:33N 37°57' E 023°38'0 0.0
2015-Jun-28 23:31N 37°57' E 023°38'0 0.0
2015-Jun-28 22:23N 37°57' E 023°38'0 0.0
2015-Jun-28 21:29N 37°57' E 023°38'3 3.4
2015-Jun-28 20:33N 37°54' E 023°38'7324.2
2015-Jun-28 17:34N 37°13' E 024°54'1412.2
2015-Jun-28 16:24N 37°05' E 025°09'1112.8
2015-Jun-28 15:33N 37°06' E 025°22'1515.5
2015-Jun-28 14:33N 37°18' E 025°36'2725.3
2015-Jun-28 13:29N 37°37' E 025°60'15 7.5
2015-Jun-28 11:32N 37°27' E 025°47'2424.6
2015-Jun-28 10:33N 37°10' E 025°25'1211.6
2015-Jun-28 09:33N 37°09' E 025°10'7 6.7
2015-Jun-28 08:34N 37°09' E 025°02'7324.4
2015-Jun-28 05:34N 37°44' E 023°41'1313.0
2015-Jun-28 04:33N 37°57' E 023°38'0 0.0
2015-Jun-28 03:31N 37°57' E 023°38'0 0.0
2015-Jun-28 02:32N 37°57' E 023°38'0 0.0
2015-Jun-28 01:32N 37°57' E 023°38'0 0.0
2015-Jun-28 00:30N 37°57' E 023°38'0 0.0
2015-Jun-27 23:28N 37°57' E 023°38'0 0.0
2015-Jun-27 22:31N 37°57' E 023°38'0 0.0
2015-Jun-27 21:32N 37°57' E 023°38'4 4.0
2015-Jun-27 20:33N 37°53' E 023°39'7224.0
2015-Jun-27 17:33N 37°13' E 024°54'1312.8
2015-Jun-27 16:33N 37°05' E 025°07'1211.7
2015-Jun-27 15:34N 37°07' E 025°22'2524.5
2015-Jun-27 14:33N 37°25' E 025°42'5 1.6
2015-Jun-27 11:34N 37°30' E 025°43'2524.6
2015-Jun-27 10:34N 37°10' E 025°25'1211.5
2015-Jun-27 09:33N 37°09' E 025°10'8 7.8
2015-Jun-27 08:34N 37°10' E 025°01'7224.2
2015-Jun-27 05:34N 37°44' E 023°40'1212.3
2015-Jun-27 04:33N 37°57' E 023°38'0 0.0
2015-Jun-27 03:34N 37°57' E 023°38'0 0.0
2015-Jun-27 02:34N 37°57' E 023°38'0 0.0
2015-Jun-27 01:34N 37°57' E 023°38'0 0.0
2015-Jun-27 00:33N 37°57' E 023°38'0 0.0
2015-Jun-26 23:33N 37°57' E 023°38'0 0.0
2015-Jun-26 22:34N 37°57' E 023°38'9 9.1
2015-Jun-26 21:33N 37°48' E 023°41'  

Dump ship's entire track history